Time;durP1;ratioP1;P1;durP2;ratioP2;P2;SDS_P1;SDS_P2;PMS_P1;PMS_P2;Temp;Humidity;BMP_temperature;BMP_pressure;BME280_temperature;BME280_humidity;BME280_pressure;Samples;Min_cycle;Max_cycle;Signal;HPM_P1;HPM_P2
2022/01/17 00:03:52;;;;;;;13.13;8.38;;;9.20;63.50;;;7.54;67.23;101518.34;8246398;28;20121;-88
2022/01/17 00:08:14;;;;;;;10.88;7.85;;;9.20;63.50;;;7.66;67.12;101530.13;8259847;28;20132;-88
2022/01/17 00:12:38;;;;;;;12.88;7.82;;;9.30;63.50;;;7.64;66.98;101524.09;8245299;28;20125;-86
2022/01/17 00:21:34;;;;;;;10.75;7.82;;;9.30;63.40;;;7.73;67.43;101529.88;8248940;28;20108;-87
2022/01/17 00:25:56;;;;;;;10.88;6.78;;;9.40;63.40;;;7.72;67.43;101514.31;8242116;28;20456;-88
2022/01/17 00:30:18;;;;;;;7.95;6.30;;;9.40;63.30;;;7.63;67.36;101499.03;8242078;28;20125;-87
2022/01/17 00:34:39;;;;;;;9.60;6.85;;;9.40;63.20;;;7.66;66.95;101485.94;8246428;28;20118;-87
2022/01/17 00:39:01;;;;;;;9.98;6.78;;;9.40;63.10;;;7.69;66.94;101480.63;8235899;28;20117;-87
2022/01/17 00:43:23;;;;;;;12.88;8.35;;;9.30;62.90;;;7.86;67.27;101503.53;8242873;28;20116;-88
2022/01/17 00:47:45;;;;;;;10.07;6.60;;;9.40;62.90;;;7.79;67.23;101496.81;8264069;28;20116;-87
2022/01/17 00:52:07;;;;;;;10.30;6.68;;;9.40;62.80;;;7.86;66.92;101495.72;8227018;28;20471;-87
2022/01/17 00:56:29;;;;;;;6.57;5.18;;;9.50;62.80;;;7.91;67.14;101488.59;8272707;28;20042;-87
2022/01/17 01:00:50;;;;;;;9.60;6.13;;;9.40;62.60;;;7.85;67.11;101468.00;8268022;28;20113;-87
2022/01/17 01:05:12;;;;;;;10.88;6.07;;;9.50;62.60;;;7.96;66.80;101484.94;8254775;28;20112;-87
2022/01/17 01:09:43;;;;;;;12.88;7.65;;;9.60;62.60;;;7.88;67.23;101455.75;8238723;28;20118;-88
2022/01/17 01:14:05;;;;;;;9.30;6.85;;;9.60;62.40;;;7.99;67.14;101455.41;8249120;28;20113;-86
2022/01/17 01:27:47;;;;;;;9.07;6.70;;;9.60;62.30;;;8.01;66.78;101457.97;8269346;28;20443;-87
2022/01/17 01:32:10;;;;;;;9.48;6.10;;;9.60;62.20;;;8.07;66.93;101470.75;8255431;28;20117;-87
2022/01/17 01:36:33;;;;;;;8.90;6.43;;;9.70;62.20;;;8.04;67.21;101455.25;8272337;28;20567;-87
2022/01/17 01:40:55;;;;;;;9.05;6.05;;;9.70;62.10;;;8.10;66.84;101468.91;8254420;28;20113;-87
2022/01/17 01:45:17;;;;;;;6.90;5.00;;;9.70;62.10;;;8.05;66.96;101433.56;8250632;28;20125;-87
2022/01/17 01:49:38;;;;;;;8.60;5.65;;;9.70;62.10;;;8.10;67.04;101437.72;8245071;28;20117;-87
2022/01/17 01:54:00;;;;;;;7.32;4.63;;;9.70;62.00;;;8.06;67.13;101423.09;8251286;28;20113;-88
2022/01/17 01:58:24;;;;;;;6.40;4.25;;;9.80;62.10;;;8.15;67.28;101464.38;8247406;28;20124;-86
2022/01/17 02:02:46;;;;;;;5.70;3.45;;;9.80;62.10;;;8.17;66.91;101459.16;8260963;28;20590;-87
2022/01/17 02:07:07;;;;;;;6.03;4.28;;;9.80;62.00;;;8.03;66.79;101427.56;8267051;28;20121;-87
2022/01/17 02:11:30;;;;;;;8.23;4.47;;;9.70;61.70;;;8.16;66.91;101452.25;8239220;28;20110;-86
2022/01/17 02:16:01;;;;;;;4.70;3.42;;;9.70;61.40;;;8.13;67.02;101441.97;8244252;28;20505;-86
2022/01/17 02:20:41;;;;;;;7.47;3.00;;;9.80;61.10;;;8.11;66.69;101439.41;8276493;28;20034;-86
2022/01/17 02:25:03;;;;;;;3.70;2.15;;;9.80;60.60;;;8.14;67.05;101447.09;8253741;28;20499;-87
2022/01/17 02:29:26;;;;;;;3.47;1.48;;;9.80;60.90;;;8.00;66.62;101422.47;8238827;28;20410;-87
2022/01/17 02:33:50;;;;;;;2.33;1.73;;;9.80;61.10;;;8.15;66.62;101447.94;8243185;28;20121;-86
2022/01/17 02:38:11;;;;;;;4.03;1.30;;;9.80;61.20;;;8.02;66.49;101407.63;8273707;28;20038;-85
2022/01/17 02:42:35;;;;;;;3.53;1.08;;;9.70;60.80;;;7.86;66.42;101395.16;8279062;28;20531;-86
2022/01/17 02:46:58;;;;;;;2.30;1.05;;;9.50;60.50;;;7.81;66.45;101391.00;8274575;28;20124;-86
2022/01/17 02:51:20;;;;;;;7.40;1.52;;;9.50;60.30;;;7.61;66.62;101350.06;8255272;28;20112;-87
2022/01/17 02:56:06;;;;;;;3.13;0.95;;;9.50;60.20;;;7.70;66.50;101388.75;8235602;28;20049;-86
2022/01/17 03:00:27;;;;;;;5.35;1.35;;;9.30;60.00;;;7.70;66.53;101360.16;8256497;28;20499;-86
2022/01/17 03:04:49;;;;;;;1.10;0.88;;;9.40;60.20;;;7.73;66.80;101352.25;8256364;28;20113;-86
2022/01/17 03:09:11;;;;;;;2.72;1.00;;;9.40;60.20;;;7.65;66.59;101325.69;8259015;28;20121;-85
2022/01/17 03:13:36;;;;;;;5.68;1.27;;;9.30;60.00;;;7.66;66.84;101322.16;8264097;28;20109;-86
2022/01/17 03:17:58;;;;;;;3.72;0.82;;;9.40;60.00;;;7.75;66.45;101346.13;8236211;28;20034;-85
2022/01/17 03:22:20;;;;;;;2.38;1.02;;;9.30;59.80;;;7.80;66.29;101350.28;8246115;28;20117;-85
2022/01/17 03:26:42;;;;;;;2.50;0.88;;;9.40;59.90;;;7.83;66.30;101343.25;8253400;28;20456;-85
2022/01/17 03:31:05;;;;;;;1.52;0.80;;;9.40;59.60;;;7.67;66.14;101324.72;8243157;28;20131;-86
2022/01/17 03:35:27;;;;;;;3.92;1.20;;;9.40;59.60;;;7.86;66.14;101340.56;8238242;28;20121;-85
2022/01/17 03:39:49;;;;;;;1.58;0.88;;;9.50;59.60;;;7.89;66.43;101340.44;8243385;28;20109;-85
2022/01/17 03:44:10;;;;;;;4.68;1.23;;;9.40;59.40;;;7.83;66.19;101299.06;8241188;28;20117;-85
2022/01/17 03:48:33;;;;;;;3.05;0.95;;;9.50;59.20;;;7.79;66.28;101313.06;8228804;28;20113;-85
2022/01/17 03:52:55;;;;;;;3.75;1.00;;;9.50;59.10;;;7.85;65.97;101319.78;8242598;28;20550;-85
2022/01/17 03:57:17;;;;;;;2.85;0.80;;;9.50;59.10;;;7.92;66.20;101316.94;8268581;28;20044;-86
2022/01/17 04:01:40;;;;;;;4.90;0.95;;;9.50;59.00;;;7.89;65.80;101337.84;8275976;28;20113;-85
2022/01/17 04:06:02;;;;;;;4.47;1.27;;;9.50;58.80;;;7.91;65.80;101330.84;8264406;28;20125;-85
2022/01/17 04:10:23;;;;;;;3.15;1.02;;;9.50;59.00;;;7.92;66.17;101342.09;8249681;28;20121;-90
2022/01/17 04:14:45;;;;;;;2.30;1.20;;;9.40;58.90;;;7.93;65.93;101355.03;8244865;28;20117;-87
2022/01/17 04:19:09;;;;;;;13.20;1.60;;;9.50;58.80;;;7.80;65.80;101319.09;8253968;28;20041;-84
2022/01/17 04:23:31;;;;;;;4.88;1.00;;;9.50;59.00;;;7.80;65.80;101308.69;8255143;28;20460;-84
2022/01/17 04:27:53;;;;;;;4.55;1.25;;;9.50;59.00;;;7.89;65.91;101311.84;8237130;28;20034;-84
2022/01/17 04:32:14;;;;;;;3.13;1.20;;;9.50;58.80;;;7.91;65.91;101327.38;8254270;28;20121;-84
2022/01/17 04:36:36;;;;;;;3.65;1.10;;;9.50;58.90;;;7.88;65.86;101312.72;8239781;28;20045;-85
2022/01/17 04:41:12;;;;;;;1.38;0.80;;;9.50;58.70;;;7.87;65.77;101303.25;8239239;28;20117;-84
2022/01/17 04:45:33;;;;;;;4.38;1.30;;;9.60;59.20;;;7.93;65.65;101307.38;8273608;28;20117;-84
2022/01/17 04:49:55;;;;;;;4.55;1.70;;;9.60;58.80;;;7.96;65.58;101315.06;8260751;28;20121;-84
2022/01/17 04:58:44;;;;;;;1.98;0.88;;;9.60;58.80;;;7.95;65.53;101336.78;8227061;28;20039;-84
2022/01/17 05:03:06;;;;;;;3.00;1.52;;;9.50;58.90;;;7.89;65.75;101301.44;8225594;28;20038;-83
2022/01/17 05:07:28;;;;;;;1.75;0.85;;;9.50;59.00;;;7.85;65.27;101270.38;8225588;28;20041;-84
2022/01/17 05:11:50;;;;;;;2.53;0.90;;;9.50;59.00;;;7.90;65.47;101290.13;8246898;28;20117;-84
2022/01/17 05:16:14;;;;;;;1.75;1.27;;;9.50;58.90;;;7.88;65.65;101262.47;8265291;28;20044;-85
2022/01/17 05:20:41;;;;;;;6.53;1.40;;;9.50;59.00;;;7.87;65.40;101260.78;8216383;28;20123;-85
2022/01/17 05:25:10;;;;;;;4.05;1.20;;;9.50;58.90;;;7.86;65.37;101259.09;8221034;28;20488;-83
2022/01/17 05:29:32;;;;;;;3.40;0.80;;;9.50;59.00;;;7.71;65.46;101219.72;8239026;28;20050;-82
2022/01/17 05:33:53;;;;;;;3.55;1.08;;;9.60;59.20;;;7.98;65.51;101254.28;8224196;28;20034;-79
2022/01/17 05:38:15;;;;;;;3.53;1.33;;;9.50;59.20;;;7.98;65.56;101254.28;8238213;28;20526;-80
2022/01/17 05:42:37;;;;;;;2.17;0.90;;;9.60;59.20;;;7.90;65.41;101256.31;8253131;28;20606;-81
2022/01/17 05:47:00;;;;;;;1.52;0.93;;;9.60;59.30;;;7.85;65.26;101237.44;8271544;28;20045;-80
2022/01/17 05:51:21;;;;;;;1.90;1.08;;;9.60;59.30;;;7.98;65.63;101280.31;8258373;28;20049;-80
2022/01/17 05:55:44;;;;;;;1.20;0.75;;;9.50;59.20;;;7.97;65.45;101286.41;8270511;28;20049;-80
2022/01/17 06:00:12;;;;;;;2.15;1.02;;;9.60;59.30;;;7.93;65.65;101282.22;8266014;28;20042;-79
2022/01/17 06:04:35;;;;;;;4.90;1.17;;;9.60;59.30;;;8.02;65.44;101277.59;8265601;28;20116;-79
2022/01/17 06:08:56;;;;;;;3.05;0.95;;;9.70;59.30;;;8.05;65.48;101274.91;8245854;28;20038;-80
2022/01/17 06:13:18;;;;;;;3.60;1.20;;;9.60;59.30;;;8.00;65.62;101240.41;8254919;28;20037;-80
2022/01/17 06:17:40;;;;;;;2.17;0.80;;;9.60;59.40;;;7.98;65.52;101233.50;8252266;28;20064;-80
2022/01/17 06:22:03;;;;;;;3.80;1.05;;;9.60;59.40;;;8.06;65.56;101279.19;8269579;28;20126;-80
2022/01/17 06:26:25;;;;;;;4.40;1.33;;;9.60;59.50;;;7.98;65.39;101280.31;8265184;28;20045;-79
2022/01/17 06:30:47;;;;;;;1.02;0.70;;;9.60;59.50;;;8.03;65.50;101303.56;8256540;28;20117;-79
2022/01/17 06:35:09;;;;;;;4.38;0.82;;;9.60;59.70;;;7.92;65.48;101257.13;8265272;28;20129;-79
2022/01/17 06:39:31;;;;;;;4.68;0.85;;;9.60;59.90;;;7.94;65.80;101234.53;8277954;28;20388;-80
2022/01/17 06:43:52;;;;;;;2.97;0.95;;;9.50;59.90;;;7.91;65.60;101206.03;8257815;28;20113;-80
2022/01/17 06:48:14;;;;;;;3.28;1.00;;;9.60;60.20;;;7.76;65.56;101181.41;8270100;28;20117;-79
2022/01/17 06:52:36;;;;;;;2.38;1.25;;;9.50;60.20;;;7.83;65.85;101192.47;8247939;28;20121;-80
2022/01/17 06:56:58;;;;;;;3.38;1.08;;;9.50;60.60;;;7.80;66.05;101205.53;8262240;28;20046;-80
2022/01/17 07:01:21;;;;;;;4.45;1.00;;;9.40;60.70;;;7.75;65.78;101216.13;8270792;28;20120;-79
2022/01/17 07:05:43;;;;;;;2.90;1.20;;;9.40;60.80;;;7.62;66.20;101214.03;8277794;28;20113;-79
2022/01/17 07:10:05;;;;;;;5.53;1.45;;;9.40;61.10;;;7.71;66.08;101235.31;8243450;28;20129;-79
2022/01/17 07:14:28;;;;;;;1.98;1.00;;;9.30;61.30;;;7.64;65.84;101253.78;8268723;28;20043;-79
2022/01/17 07:18:49;;;;;;;1.70;1.00;;;9.30;61.60;;;7.67;65.95;101259.75;8251959;28;20415;-80
2022/01/17 07:23:11;;;;;;;2.53;1.15;;;9.20;61.50;;;7.50;66.06;101223.06;8262619;28;20117;-78
2022/01/17 07:27:34;;;;;;;2.67;0.88;;;9.20;61.70;;;7.65;66.15;101211.31;8262601;28;20116;-80
2022/01/17 07:31:56;;;;;;;4.15;1.27;;;9.30;61.90;;;7.60;66.47;101195.03;8250017;28;20125;-81
2022/01/17 07:36:20;;;;;;;2.65;1.00;;;9.30;62.00;;;7.67;66.33;101191.28;8251433;28;20048;-80
2022/01/17 07:40:43;;;;;;;2.13;1.00;;;9.20;62.10;;;7.68;66.32;101177.41;8250375;28;20113;-80
2022/01/17 07:45:14;;;;;;;4.45;1.10;;;9.30;62.30;;;7.59;66.32;101177.72;8264622;28;20120;-80
2022/01/17 07:49:36;;;;;;;6.82;1.77;;;9.20;62.30;;;7.66;66.62;101174.00;8248456;28;20033;-80
2022/01/17 07:53:58;;;;;;;2.53;1.20;;;9.20;62.20;;;7.74;66.35;101180.63;8273330;28;20116;-80
2022/01/17 07:58:20;;;;;;;2.55;1.80;;;9.30;62.20;;;7.72;66.12;101174.66;8263632;28;20044;-80
2022/01/17 08:02:41;;;;;;;2.53;0.82;;;9.30;62.20;;;7.77;66.46;101158.88;8276474;28;20037;-80
2022/01/17 08:07:07;;;;;;;2.38;0.90;;;9.40;62.40;;;7.76;66.20;101160.63;8275384;28;20126;-80
2022/01/17 08:11:28;;;;;;;2.17;0.85;;;9.40;62.30;;;7.79;66.35;101151.88;8256788;28;20361;-80
2022/01/17 08:15:50;;;;;;;1.30;0.82;;;9.40;62.40;;;7.81;66.60;101157.88;8262589;28;20116;-79
2022/01/17 08:20:13;;;;;;;5.28;1.10;;;9.40;62.50;;;7.69;66.26;101112.34;8259744;28;20517;-79
2022/01/17 08:24:36;;;;;;;2.55;1.02;;;9.40;62.40;;;7.83;66.55;101119.66;8252739;28;20345;-80
2022/01/17 08:28:57;;;;;;;1.40;0.80;;;9.50;62.60;;;7.91;66.68;101145.34;8262047;28;20283;-79
2022/01/17 08:33:19;;;;;;;2.70;1.20;;;9.50;62.70;;;7.82;66.18;101115.34;8274271;28;20129;-80
2022/01/17 08:37:41;;;;;;;2.08;0.70;;;9.50;62.80;;;7.91;66.53;101117.63;8262492;28;20442;-80
2022/01/17 08:42:10;;;;;;;7.25;1.20;;;9.50;62.70;;;7.84;66.45;101110.09;8270655;28;20129;-80
2022/01/17 08:46:32;;;;;;;2.95;1.60;;;9.50;63.00;;;7.84;66.87;101131.75;8233545;28;20121;-79
2022/01/17 08:50:53;;;;;;;6.25;1.02;;;9.60;63.00;;;7.93;66.91;101160.00;8282328;28;20057;-80
2022/01/17 08:55:17;;;;;;;2.03;0.98;;;9.50;63.20;;;7.86;66.69;101183.69;8269993;28;20337;-79
2022/01/17 08:59:38;;;;;;;4.03;0.85;;;9.50;63.40;;;7.91;66.57;101140.16;8268038;28;20040;-80
2022/01/17 09:04:01;;;;;;;1.38;0.77;;;9.50;63.30;;;7.93;66.91;101141.78;8268419;28;20045;-80
2022/01/17 09:08:23;;;;;;;0.70;0.65;;;9.60;63.40;;;7.83;66.79;101137.88;8277183;28;20124;-80
2022/01/17 09:12:45;;;;;;;3.42;1.00;;;9.60;63.40;;;7.97;66.76;101159.00;8231392;28;20128;-80
2022/01/17 09:17:09;;;;;;;0.80;0.80;;;9.60;63.50;;;8.02;66.95;101147.56;8253861;28;20034;-80
2022/01/17 09:21:31;;;;;;;1.55;0.50;;;9.70;63.40;;;8.05;66.65;101163.06;8232593;28;20110;-81
2022/01/17 09:25:53;;;;;;;1.38;0.90;;;9.60;63.50;;;8.08;66.64;101179.41;8249225;28;20045;-80
2022/01/17 09:30:16;;;;;;;0.80;0.70;;;9.60;63.60;;;8.17;66.86;101206.81;8252442;28;20120;-79
2022/01/17 09:34:38;;;;;;;2.40;0.73;;;9.70;63.90;;;8.11;66.87;101191.44;8269566;28;20117;-79
2022/01/17 09:39:03;;;;;;;2.08;0.70;;;9.70;63.90;;;8.16;66.64;101208.56;8255914;28;20042;-80
2022/01/17 09:43:25;;;;;;;1.20;0.90;;;9.80;64.00;;;8.18;66.94;101251.00;8264676;28;20117;-79
2022/01/17 09:47:47;;;;;;;1.10;0.60;;;9.80;63.90;;;8.18;66.99;101276.13;8277979;28;20129;-79
2022/01/17 09:52:34;;;;;;;0.70;0.70;;;9.80;64.00;;;8.10;67.10;101276.44;8281426;28;20472;-79
2022/01/17 09:56:59;;;;;;;2.45;1.02;;;9.80;64.20;;;8.14;66.66;101305.78;8249481;28;20113;-79
2022/01/17 10:01:20;;;;;;;1.03;0.80;;;9.80;64.30;;;8.12;66.89;101338.78;8257484;28;20117;-80
2022/01/17 10:05:43;;;;;;;1.42;0.60;;;9.80;64.90;;;8.08;66.75;101324.22;8243123;28;20113;-80
2022/01/17 10:10:06;;;;;;;1.75;0.60;;;9.80;64.30;;;8.09;67.01;101367.50;8276150;28;20140;-80
2022/01/17 10:14:32;;;;;;;1.23;0.68;;;9.70;63.60;;;7.93;66.99;101364.59;8247581;28;20125;-80
2022/01/17 10:19:00;;;;;;;;;;;9.70;63.10;;;7.85;66.79;101379.59;8256310;28;20030;-80
2022/01/17 10:23:42;;;;;;;2.75;0.82;;;9.60;61.90;;;7.78;66.90;101406.69;8265266;28;20199;-80
2022/01/17 10:38:20;;;;;;;1.55;0.73;;;9.20;61.50;;;7.45;67.10;101414.66;8256900;28;20048;-81
2022/01/17 10:42:47;;;;;;;1.60;1.30;;;9.20;61.70;;;7.46;66.98;101431.97;8266307;28;20106;-82
2022/01/17 10:47:24;;;;;;;1.52;0.60;;;9.10;61.80;;;7.48;66.77;101449.22;8255538;28;20624;-82
2022/01/17 10:51:46;;;;;;;4.05;0.98;;;9.10;62.00;;;7.49;66.83;101478.66;8239286;28;20121;-82
2022/01/17 10:56:10;;;;;;;1.75;1.15;;;9.10;62.00;;;7.39;66.62;101462.47;8250668;28;20124;-82
2022/01/17 11:00:43;;;;;;;3.42;0.88;;;9.00;62.00;;;7.35;67.01;101486.84;8258515;28;20038;-82
2022/01/17 11:05:10;;;;;;;5.43;0.93;;;9.30;62.30;;;7.42;66.42;101549.88;8252448;28;20124;-80
2022/01/17 11:09:49;;;;;;;3.90;1.25;;;9.00;61.10;;;7.19;66.27;101564.38;8241551;28;20117;-80
2022/01/17 11:14:10;;;;;;;4.70;1.20;;;9.00;59.40;;;6.90;65.98;101583.31;8253520;28;20567;-80
2022/01/17 11:18:35;;;;;;;2.42;1.33;;;8.80;59.20;;;6.67;66.13;101586.53;8266720;28;20038;-79
2022/01/17 11:22:59;;;;;;;4.15;1.50;;;8.60;59.50;;;6.40;66.48;101608.81;8263092;28;20459;-79
2022/01/17 11:27:21;;;;;;;6.00;1.75;;;8.30;58.90;;;6.16;66.58;101585.16;8252458;28;20102;-82
2022/01/17 11:31:43;;;;;;;6.68;1.27;;;8.10;59.10;;;6.16;66.26;101626.63;8254221;28;20121;-81
2022/01/17 11:36:05;;;;;;;2.78;0.90;;;7.90;58.90;;;6.06;65.87;101630.31;8252707;28;20121;-82
2022/01/17 11:40:32;;;;;;;4.30;1.10;;;7.80;59.30;;;5.94;66.11;101644.41;8259445;28;20044;-82
2022/01/17 11:44:54;;;;;;;2.85;0.90;;;7.70;59.30;;;5.97;66.26;101666.81;8259834;28;20402;-82
2022/01/17 11:49:31;;;;;;;2.75;1.15;;;7.70;59.60;;;5.87;66.37;101649.72;8237022;28;20041;-81
2022/01/17 11:53:54;;;;;;;2.90;1.05;;;7.50;59.60;;;5.80;66.04;101643.78;8238285;28;20121;-81
2022/01/17 11:58:38;;;;;;;5.28;1.33;;;7.80;59.70;;;5.89;66.01;101647.94;8240851;28;20040;-81
2022/01/17 12:03:22;;;;;;;4.82;1.10;;;7.50;59.80;;;5.97;66.24;101656.44;8241771;28;20030;-81
2022/01/17 12:07:51;;;;;;;3.92;1.30;;;7.50;59.90;;;5.97;66.41;101638.31;8264490;28;20432;-81
2022/01/17 12:12:15;;;;;;;3.65;1.13;;;7.50;60.10;;;6.09;66.18;101657.91;8233935;28;20487;-81
2022/01/17 12:16:37;;;;;;;2.45;1.05;;;7.60;60.50;;;6.13;66.60;101667.31;8276671;28;20122;-81
2022/01/17 12:21:24;;;;;;;3.55;1.20;;;7.60;60.30;;;6.19;65.78;101708.69;8242876;28;20061;-81
2022/01/17 12:25:46;;;;;;;8.95;1.40;;;7.70;60.00;;;6.22;66.34;101695.66;8263429;28;20104;-81
2022/01/17 12:30:11;;;;;;;3.97;1.13;;;8.00;60.20;;;6.20;66.29;101685.31;8285046;28;20133;-81
2022/01/17 12:34:42;;;;;;;4.30;2.03;;;7.80;59.70;;;6.15;66.20;101697.53;8260281;28;20117;-81
2022/01/17 12:39:21;;;;;;;2.97;1.10;;;7.80;59.50;;;6.13;65.69;101701.03;8245756;28;20056;-81
2022/01/17 12:43:43;;;;;;;2.00;1.00;;;7.70;59.20;;;6.09;66.01;101682.09;8265791;28;20121;-80
2022/01/17 12:48:11;;;;;;;2.88;0.95;;;7.70;59.30;;;6.04;66.28;101664.94;8254759;28;20145;-80
2022/01/17 12:52:33;;;;;;;3.35;0.70;;;7.60;59.10;;;6.06;66.49;101689.94;8258681;28;20034;-80
2022/01/17 12:56:59;;;;;;;3.20;1.00;;;7.70;59.30;;;6.09;66.06;101712.38;8270711;28;20061;-80
2022/01/17 13:01:20;;;;;;;4.35;1.38;;;7.70;59.10;;;6.17;66.22;101732.06;8281793;28;20334;-80
2022/01/17 13:05:44;;;;;;;3.33;1.00;;;7.90;59.20;;;6.18;65.84;101720.81;8280138;28;20117;-80
2022/01/17 13:10:10;;;;;;;1.85;0.82;;;7.70;59.10;;;6.05;65.54;101690.84;8254032;28;20129;-80
2022/01/17 13:14:32;;;;;;;3.17;0.90;;;7.80;59.10;;;6.15;65.80;101694.06;8279850;28;20502;-80
2022/01/17 13:18:56;;;;;;;3.80;1.10;;;7.70;58.90;;;6.03;65.98;101679.63;8250465;28;20042;-80
2022/01/17 13:23:25;;;;;;;2.53;0.63;;;7.80;58.70;;;5.93;65.63;101685.88;8276077;28;20120;-80
2022/01/17 13:28:02;;;;;;;3.85;0.90;;;7.70;58.70;;;6.03;65.56;101738.44;8267684;28;20140;-80
2022/01/17 13:32:34;;;;;;;1.90;1.05;;;7.70;58.50;;;6.02;65.67;101757.44;8242632;28;20138;-80
2022/01/17 13:37:03;;;;;;;5.85;0.98;;;7.70;58.40;;;5.93;65.58;101745.50;8257386;28;20121;-80
2022/01/17 13:41:28;;;;;;;4.32;1.27;;;7.70;58.20;;;6.01;65.97;101766.13;8254376;28;20132;-80
2022/01/17 13:45:51;;;;;;;5.22;1.42;;;7.70;58.00;;;5.94;65.56;101755.00;8272207;28;20518;-80
2022/01/17 13:50:13;;;;;;;4.10;1.83;;;7.60;57.80;;;6.06;65.34;101785.88;8282755;28;20128;-80
2022/01/17 13:54:47;;;;;;;4.43;1.60;;;7.70;57.90;;;6.10;65.42;101797.91;8265757;28;20038;-80
2022/01/17 13:59:13;;;;;;;1.63;0.80;;;7.70;57.70;;;6.09;65.41;101801.38;8266177;28;20038;-80
2022/01/17 14:03:39;;;;;;;4.82;1.83;;;7.70;57.60;;;6.11;65.41;101799.63;8274985;28;20121;-79
2022/01/17 14:08:34;;;;;;;2.83;1.00;;;7.80;57.50;;;6.05;64.92;101797.16;8258363;28;20583;-80
2022/01/17 14:12:55;;;;;;;2.65;1.23;;;7.80;57.00;;;6.05;64.77;101817.00;8254780;28;20117;-80
2022/01/17 14:17:29;;;;;;;2.95;1.10;;;7.70;57.40;;;6.13;65.25;101841.06;8250165;28;20048;-80
2022/01/17 14:22:06;;;;;;;2.20;0.90;;;7.80;56.80;;;6.10;64.62;101839.41;8255317;28;20120;-80
2022/01/17 14:26:28;;;;;;;3.75;1.30;;;7.80;56.80;;;6.07;65.04;101828.22;8272584;28;20571;-80
2022/01/17 14:30:49;;;;;;;2.03;1.08;;;7.70;56.80;;;6.06;65.00;101832.56;8275292;28;20053;-80
2022/01/17 14:35:11;;;;;;;2.90;1.13;;;7.70;56.60;;;5.90;64.58;101821.56;8270388;28;20491;-79
2022/01/17 14:39:58;;;;;;;2.53;1.25;;;7.70;56.90;;;6.09;65.05;101862.75;8275377;28;20034;-81
2022/01/17 14:44:20;;;;;;;3.97;1.10;;;7.70;56.80;;;6.09;64.87;101873.13;8261127;28;20045;-78
2022/01/17 14:48:43;;;;;;;3.50;1.30;;;7.70;56.80;;;6.05;65.07;101879.25;8272761;28;20306;-81
2022/01/17 14:53:15;;;;;;;3.30;1.02;;;7.70;56.50;;;5.98;64.68;101881.94;8260872;28;20574;-80
2022/01/17 15:03:07;;;;;;;2.70;1.20;;;7.70;56.80;;;6.05;64.59;101933.69;8231663;28;20034;-78
2022/01/17 15:07:15;;;;;;;5.70;1.10;;;7.80;57.20;;;6.01;64.03;101945.00;8228263;28;20034;-80
2022/01/17 15:11:38;;;;;;;1.92;0.98;;;7.80;57.00;;;6.03;64.82;101967.44;8227136;28;20038;-78
2022/01/17 15:16:00;;;;;;;5.53;1.98;;;7.80;57.20;;;6.10;64.88;101997.59;8237116;28;20046;-78
2022/01/17 15:20:26;;;;;;;3.45;1.42;;;7.70;56.80;;;6.06;64.69;102006.28;8265204;28;20050;-79
2022/01/17 15:24:48;;;;;;;4.70;1.35;;;7.80;57.30;;;6.01;64.48;102000.31;8250937;28;20038;-78
2022/01/17 15:29:14;;;;;;;4.35;1.33;;;7.70;57.40;;;6.07;64.85;102014.91;8249777;28;20038;-79
2022/01/17 15:33:44;;;;;;;5.60;2.40;;;7.80;57.60;;;6.06;64.23;102033.97;8241323;28;20039;-79
2022/01/17 15:38:10;;;;;;;4.95;1.20;;;7.70;57.50;;;5.96;64.70;102047.03;8257322;28;20052;-77
2022/01/17 15:42:32;;;;;;;2.85;1.25;;;7.70;57.60;;;6.02;65.01;102078.94;8246723;28;20038;-78
2022/01/17 15:46:54;;;;;;;4.13;1.85;;;7.70;57.60;;;6.11;64.59;102113.41;8262839;28;20044;-78
2022/01/17 15:51:16;;;;;;;4.00;1.60;;;7.60;57.60;;;5.96;64.28;102103.22;8266753;28;20503;-78
2022/01/17 15:55:38;;;;;;;3.72;1.98;;;7.70;57.70;;;6.11;64.45;102134.16;8248331;28;20038;-77
2022/01/17 16:00:00;;;;;;;5.15;1.80;;;7.80;57.70;;;6.08;64.14;102141.97;8249365;28;20046;-78
2022/01/17 16:04:22;;;;;;;3.00;1.30;;;7.70;57.70;;;6.01;64.35;102147.25;8258951;28;20040;-78
2022/01/17 16:08:44;;;;;;;6.95;1.35;;;7.70;57.70;;;5.94;64.54;102149.06;8243274;28;20044;-78
2022/01/17 16:13:06;;;;;;;7.95;2.00;;;7.70;57.70;;;5.90;64.83;102147.34;8238927;28;20033;-78
2022/01/17 16:17:27;;;;;;;4.47;1.80;;;7.70;57.70;;;5.93;64.75;102157.69;8253702;28;20038;-78
2022/01/17 16:21:51;;;;;;;4.93;1.83;;;7.70;57.60;;;5.90;64.71;102162.91;8256820;28;20056;-78
2022/01/17 16:26:13;;;;;;;4.30;1.67;;;7.60;57.70;;;5.95;64.64;102187.94;8272572;28;20126;-78
2022/01/17 16:30:35;;;;;;;1.63;1.10;;;7.60;57.70;;;5.84;64.83;102189.78;8260032;28;20040;-91
2022/01/17 16:34:58;;;;;;;3.38;1.23;;;7.60;57.70;;;5.92;64.38;102208.69;8272350;28;20504;-81
2022/01/17 16:39:19;;;;;;;3.25;1.38;;;7.50;57.70;;;5.74;64.60;102188.16;8272873;28;20034;-81
2022/01/17 16:43:44;;;;;;;6.18;2.22;;;7.60;57.70;;;5.76;64.48;102208.00;8251893;28;20048;-81
2022/01/17 16:48:07;;;;;;;4.97;1.52;;;7.50;57.70;;;5.84;64.54;102235.59;8245210;28;20042;-81
2022/01/17 16:52:29;;;;;;;5.07;1.70;;;7.50;57.70;;;5.75;64.35;102228.75;8272894;28;20038;-81
2022/01/17 16:56:56;;;;;;;4.75;2.20;;;7.50;57.60;;;5.71;64.21;102240.88;8257290;28;20505;-81
2022/01/17 17:01:17;;;;;;;5.32;2.00;;;7.40;57.60;;;5.70;64.52;102254.72;8246722;28;20048;-81
2022/01/17 17:05:40;;;;;;;2.50;1.40;;;7.40;57.50;;;5.63;64.07;102266.03;8244893;28;20057;-82
2022/01/17 17:10:05;;;;;;;2.72;1.55;;;7.40;57.50;;;5.72;64.55;102306.53;8250163;28;20528;-80
2022/01/17 17:14:28;;;;;;;2.63;1.50;;;7.40;57.40;;;5.61;64.39;102298.84;8229185;28;20042;-81
2022/01/17 17:18:49;;;;;;;4.32;1.67;;;7.30;57.50;;;5.48;64.54;102300.72;8257172;28;20041;-81
2022/01/17 17:23:11;;;;;;;2.42;1.67;;;7.30;57.50;;;5.54;64.43;102326.56;8246756;28;20038;-81
2022/01/17 17:27:35;;;;;;;2.35;1.75;;;7.30;57.40;;;5.54;64.09;102316.19;8229652;28;20298;-83
2022/01/17 17:31:56;;;;;;;4.40;1.70;;;7.30;57.50;;;5.59;64.09;102339.50;8257964;28;20034;-81
2022/01/17 17:36:21;;;;;;;6.20;1.85;;;7.20;57.50;;;5.55;64.52;102351.59;8260697;28;20044;-81
2022/01/17 17:40:43;;;;;;;5.18;1.65;;;7.20;57.40;;;5.58;64.51;102370.59;8253027;28;20042;-82
2022/01/17 17:45:05;;;;;;;6.45;2.10;;;7.20;57.50;;;5.43;64.20;102356.03;8235218;28;20047;-81
2022/01/17 17:49:27;;;;;;;6.35;2.13;;;7.20;57.50;;;5.53;64.24;102387.00;8235220;28;20046;-81
2022/01/17 17:53:49;;;;;;;8.20;2.45;;;7.10;57.50;;;5.48;64.15;102388.81;8238199;28;20042;-81
2022/01/17 17:58:10;;;;;;;6.43;2.40;;;7.10;57.50;;;5.41;64.44;102378.50;8238810;28;20048;-82
2022/01/17 18:02:32;;;;;;;5.43;2.13;;;7.10;57.50;;;5.45;63.82;102404.34;8254499;28;20042;-82
2022/01/17 18:06:54;;;;;;;7.38;2.40;;;7.10;57.60;;;5.25;64.41;102372.56;8254447;28;20044;-82
2022/01/17 18:11:16;;;;;;;8.45;2.58;;;7.00;57.50;;;5.31;64.40;102385.44;8242469;28;20069;-82
2022/01/17 18:15:38;;;;;;;4.57;2.22;;;7.10;57.40;;;5.39;64.03;102416.50;8230147;28;20503;-81
2022/01/17 18:20:00;;;;;;;6.10;2.45;;;6.90;57.40;;;5.36;64.22;102413.94;8226978;28;20461;-82
2022/01/17 18:24:22;;;;;;;6.78;2.28;;;6.90;57.30;;;5.26;64.03;102408.78;8265772;28;20038;-80
2022/01/17 18:28:44;;;;;;;4.30;2.30;;;7.00;57.30;;;5.16;63.96;102403.66;8254021;28;20042;-80
2022/01/17 18:33:07;;;;;;;6.30;1.45;;;7.00;57.40;;;5.28;64.18;102448.50;8251956;28;20037;-81
2022/01/17 18:37:29;;;;;;;4.85;1.55;;;6.90;57.40;;;5.17;64.13;102439.94;8268664;28;20545;-80
2022/01/17 18:41:51;;;;;;;6.75;2.10;;;6.90;57.40;;;5.22;64.03;102442.50;8268827;28;20381;-81
2022/01/17 18:46:13;;;;;;;8.77;2.53;;;6.90;57.30;;;5.13;63.94;102440.81;8241320;28;20046;-81
2022/01/17 18:50:35;;;;;;;4.95;2.05;;;6.90;57.30;;;5.19;64.24;102447.69;8250415;28;20051;-80
2022/01/17 18:54:56;;;;;;;3.47;1.55;;;6.90;57.40;;;5.13;64.00;102440.81;8250212;28;20097;-81
2022/01/17 18:59:18;;;;;;;7.03;1.88;;;6.90;57.50;;;5.20;63.74;102459.75;8250179;28;20036;-82
2022/01/17 19:03:40;;;;;;;5.05;1.52;;;6.80;57.40;;;5.16;64.42;102465.81;8268528;28;20041;-81
2022/01/17 19:08:02;;;;;;;6.57;1.60;;;6.80;57.50;;;5.18;64.25;102477.88;8265905;28;20044;-80
2022/01/17 19:12:24;;;;;;;7.07;1.55;;;6.80;57.50;;;5.13;64.36;102482.25;8267890;28;20449;-81
2022/01/17 19:16:47;;;;;;;7.15;2.58;;;6.80;57.50;;;5.11;64.17;102494.34;8260472;28;20498;-81